Time;durP1;ratioP1;P1;durP2;ratioP2;P2;SDS_P1;SDS_P2;PMS_P1;PMS_P2;Temp;Humidity;BMP_temperature;BMP_pressure;BME280_temperature;BME280_humidity;BME280_pressure;Samples;Min_cycle;Max_cycle;Signal;HPM_P1;HPM_P2
2023/03/25 00:01:32;;;;;;;5.25;0.95;;;10.30;99.90;;;;;;5055456;28;20041;-70
2023/03/25 00:03:59;;;;;;;11.95;1.77;;;10.40;99.90;;;;;;5050939;28;20033;-69
2023/03/25 00:06:27;;;;;;;9.02;1.50;;;10.40;99.90;;;;;;5072124;28;20037;-70
2023/03/25 00:08:53;;;;;;;8.25;1.88;;;10.40;99.90;;;;;;5071915;28;20138;-69
2023/03/25 00:11:19;;;;;;;8.68;2.13;;;10.40;99.90;;;;;;5070814;28;20485;-69
2023/03/25 00:13:46;;;;;;;10.27;1.77;;;10.40;99.90;;;;;;5063545;28;20028;-69
2023/03/25 00:16:12;;;;;;;8.93;1.40;;;10.30;99.90;;;;;;5056568;28;20044;-70
2023/03/25 00:18:38;;;;;;;10.38;1.60;;;10.40;99.90;;;;;;5052239;28;20041;-70
2023/03/25 00:21:09;;;;;;;7.55;1.80;;;10.40;99.90;;;;;;5036285;28;20108;-69
2023/03/25 00:23:35;;;;;;;6.65;1.25;;;10.40;99.90;;;;;;5053311;28;20044;-70
2023/03/25 00:26:01;;;;;;;11.60;2.10;;;10.40;99.90;;;;;;5052868;28;20576;-70
2023/03/25 00:28:32;;;;;;;11.70;1.65;;;10.30;99.90;;;;;;5056721;28;20046;-70
2023/03/25 00:31:04;;;;;;;11.57;1.92;;;10.30;99.90;;;;;;5072600;28;20048;-70
2023/03/25 00:33:30;;;;;;;12.27;2.17;;;10.20;99.90;;;;;;5072696;28;20128;-70
2023/03/25 00:35:58;;;;;;;13.52;2.20;;;10.30;99.90;;;;;;5070447;28;20040;-70
2023/03/25 00:38:32;;;;;;;7.57;1.90;;;10.30;99.90;;;;;;5067371;28;20124;-70
2023/03/25 00:40:58;;;;;;;10.27;1.55;;;10.20;99.90;;;;;;5057122;28;20079;-70
2023/03/25 00:43:24;;;;;;;7.75;2.22;;;10.20;99.90;;;;;;5072133;28;20044;-70
2023/03/25 00:45:55;;;;;;;7.80;1.70;;;10.40;99.90;;;;;;5053891;28;20041;-70
2023/03/25 00:48:20;;;;;;;6.57;1.33;;;10.40;99.90;;;;;;5055875;28;20037;-70
2023/03/25 00:50:47;;;;;;;6.25;1.10;;;10.30;99.90;;;;;;5055639;28;20063;-70
2023/03/25 00:53:13;;;;;;;11.93;1.80;;;10.20;99.90;;;;;;5054892;28;20037;-70
2023/03/25 00:55:38;;;;;;;6.50;1.13;;;10.20;99.90;;;;;;5072339;28;20066;-71
2023/03/25 00:58:04;;;;;;;4.53;1.23;;;10.20;99.90;;;;;;5072242;28;20467;-71
2023/03/25 01:00:30;;;;;;;9.48;2.08;;;10.20;99.90;;;;;;5053707;28;20036;-71
2023/03/25 01:02:55;;;;;;;10.07;2.05;;;10.00;99.90;;;;;;5055511;28;20484;-71
2023/03/25 01:05:21;;;;;;;4.38;1.27;;;10.00;99.90;;;;;;5055435;28;20121;-71
2023/03/25 01:07:48;;;;;;;5.68;1.05;;;10.00;99.90;;;;;;5072182;28;20401;-71
2023/03/25 01:10:14;;;;;;;6.30;1.50;;;10.00;99.90;;;;;;5051646;28;20033;-71
2023/03/25 01:12:39;;;;;;;17.23;2.83;;;9.80;99.90;;;;;;5052148;28;20037;-71
2023/03/25 01:15:06;;;;;;;8.80;1.48;;;9.80;99.90;;;;;;5053894;28;20032;-71
2023/03/25 01:17:31;;;;;;;5.05;1.40;;;9.80;99.90;;;;;;5070814;28;20044;-70
2023/03/25 01:19:57;;;;;;;20.85;2.13;;;9.80;99.90;;;;;;5070900;28;20113;-71
2023/03/25 01:22:22;;;;;;;11.32;2.42;;;9.80;99.90;;;;;;5055190;28;20047;-70
2023/03/25 01:24:48;;;;;;;7.93;1.35;;;9.80;99.90;;;;;;5038537;28;20416;-70
2023/03/25 01:27:14;;;;;;;7.57;1.98;;;9.80;99.90;;;;;;5035274;28;20049;-70
2023/03/25 01:29:39;;;;;;;6.45;2.10;;;9.70;99.90;;;;;;5049662;28;20048;-71
2023/03/25 01:32:05;;;;;;;8.65;1.73;;;9.70;99.90;;;;;;5070810;28;20041;-70
2023/03/25 01:34:37;;;;;;;13.25;1.73;;;9.60;99.90;;;;;;5064863;28;20079;-70
2023/03/25 01:37:03;;;;;;;5.88;2.00;;;9.60;99.90;;;;;;5051960;28;20045;-70
2023/03/25 01:39:28;;;;;;;7.22;1.77;;;9.60;99.90;;;;;;5035076;28;20090;-70
2023/03/25 01:41:54;;;;;;;8.50;1.70;;;9.50;99.90;;;;;;5035119;28;20036;-70
2023/03/25 01:44:20;;;;;;;7.07;1.80;;;9.50;99.90;;;;;;5043258;28;20044;-71
2023/03/25 01:46:47;;;;;;;6.38;1.90;;;9.50;99.90;;;;;;5050143;28;20036;-70
2023/03/25 01:49:20;;;;;;;8.40;1.95;;;9.50;99.90;;;;;;5070569;28;20068;-70
2023/03/25 01:51:48;;;;;;;9.43;1.80;;;9.60;99.90;;;;;;5067218;28;20057;-70
2023/03/25 01:54:17;;;;;;;14.45;2.15;;;9.50;99.90;;;;;;5038611;28;20080;-71
2023/03/25 01:56:46;;;;;;;6.28;1.42;;;9.50;99.90;;;;;;5055629;28;20485;-70
2023/03/25 01:59:16;;;;;;;7.45;1.90;;;9.50;99.90;;;;;;5066188;28;20119;-70
2023/03/25 02:01:44;;;;;;;10.77;2.00;;;9.60;99.90;;;;;;5058962;28;20524;-70
2023/03/25 02:04:12;;;;;;;12.73;2.05;;;9.50;99.90;;;;;;5047785;28;20473;-70
2023/03/25 02:06:43;;;;;;;9.93;2.15;;;9.50;99.90;;;;;;5070916;28;20453;-71
2023/03/25 02:09:10;;;;;;;14.38;1.90;;;9.40;99.90;;;;;;5058859;28;20075;-71
2023/03/25 02:11:37;;;;;;;12.50;2.42;;;9.40;99.90;;;;;;5075679;28;20033;-71
2023/03/25 02:14:07;;;;;;;9.77;1.70;;;9.50;99.90;;;;;;5054514;28;20432;-71
2023/03/25 02:17:00;;;;;;;11.07;2.00;;;9.40;99.90;;;;;;5054380;28;20072;-71
2023/03/25 02:19:39;;;;;;;12.60;1.90;;;9.40;99.90;;;;;;5060622;28;20048;-71
2023/03/25 02:22:36;;;;;;;14.07;3.10;;;9.40;99.90;;;;;;5038554;28;20493;-71
2023/03/25 02:25:34;;;;;;;8.95;1.70;;;9.50;99.90;;;;;;5055064;28;20461;-70
2023/03/25 02:28:09;;;;;;;6.25;1.23;;;9.60;99.90;;;;;;5054650;28;20122;-71
2023/03/25 02:31:11;;;;;;;10.63;1.77;;;9.60;99.90;;;;;;5071573;28;20041;-70
2023/03/25 02:34:04;;;;;;;10.05;1.80;;;9.50;99.90;;;;;;5038262;28;20041;-71
2023/03/25 02:36:51;;;;;;;10.65;2.17;;;9.50;99.90;;;;;;5038647;28;20354;-71
2023/03/25 02:39:47;;;;;;;12.98;2.10;;;9.50;99.90;;;;;;5065952;28;20032;-71
2023/03/25 02:42:41;;;;;;;11.20;1.77;;;9.50;99.90;;;;;;5053121;28;20037;-71
2023/03/25 02:45:20;;;;;;;13.57;2.33;;;9.40;99.90;;;;;;5054737;28;20121;-71
2023/03/25 02:47:49;;;;;;;12.88;2.10;;;9.40;99.90;;;;;;5057038;28;20504;-71
2023/03/25 02:50:22;;;;;;;12.88;2.35;;;9.40;99.90;;;;;;5070114;28;20128;-71
2023/03/25 02:52:56;;;;;;;11.02;2.00;;;9.50;99.90;;;;;;5055476;28;20040;-71
2023/03/25 02:55:24;;;;;;;9.95;2.03;;;9.50;99.90;;;;;;5059599;28;20126;-71
2023/03/25 02:57:56;;;;;;;15.52;2.53;;;9.50;99.90;;;;;;5055244;28;20180;-71
2023/03/25 03:00:26;;;;;;;10.65;2.33;;;9.50;99.90;;;;;;5047751;28;20033;-71
2023/03/25 03:02:58;;;;;;;15.48;2.60;;;9.50;99.90;;;;;;5055057;28;20114;-71
2023/03/25 03:05:26;;;;;;;13.52;2.92;;;9.50;99.90;;;;;;5055917;28;20129;-71
2023/03/25 03:08:04;;;;;;;13.23;2.22;;;9.50;99.90;;;;;;5054017;28;20382;-71
2023/03/25 03:11:09;;;;;;;13.82;2.33;;;9.50;99.90;;;;;;5052253;28;20043;-71
2023/03/25 03:13:52;;;;;;;13.02;2.47;;;9.50;99.90;;;;;;5061947;28;20044;-71
2023/03/25 03:16:32;;;;;;;7.65;1.35;;;9.50;99.90;;;;;;5057636;28;20052;-71
2023/03/25 03:19:03;;;;;;;14.70;3.13;;;9.50;99.90;;;;;;5055361;28;20043;-71
2023/03/25 03:21:38;;;;;;;5.97;1.42;;;9.40;99.90;;;;;;5053947;28;20040;-71
2023/03/25 03:24:08;;;;;;;9.25;2.78;;;9.40;99.90;;;;;;5055450;28;20106;-70
2023/03/25 03:26:52;;;;;;;13.82;2.40;;;9.40;99.90;;;;;;5059902;28;20039;-71
2023/03/25 03:29:25;;;;;;;13.65;2.28;;;9.40;99.90;;;;;;5054013;28;20028;-71
2023/03/25 03:31:53;;;;;;;8.63;2.25;;;9.30;99.90;;;;;;5041181;28;20041;-71
2023/03/25 03:34:21;;;;;;;9.90;1.95;;;9.30;99.90;;;;;;5041667;28;20044;-70
2023/03/25 03:36:49;;;;;;;14.75;2.28;;;9.30;99.90;;;;;;5069630;28;20076;-70
2023/03/25 03:39:21;;;;;;;10.55;2.13;;;9.30;99.90;;;;;;5056977;28;20493;-70
2023/03/25 03:41:52;;;;;;;12.63;2.47;;;9.30;99.90;;;;;;5058131;28;20056;-70
2023/03/25 03:44:23;;;;;;;10.45;2.40;;;9.30;99.90;;;;;;5051419;28;20055;-70
2023/03/25 03:46:58;;;;;;;10.77;2.00;;;9.30;99.90;;;;;;5058467;28;20048;-70
2023/03/25 03:49:28;;;;;;;11.25;2.00;;;9.20;99.90;;;;;;5078046;28;20037;-71
2023/03/25 03:52:08;;;;;;;15.18;2.03;;;9.30;99.90;;;;;;5067169;28;20064;-71
2023/03/25 03:54:45;;;;;;;9.85;2.45;;;9.30;99.90;;;;;;5054993;28;20114;-70
2023/03/25 03:57:19;;;;;;;10.70;1.85;;;9.30;99.90;;;;;;5071957;28;20048;-71
2023/03/25 04:00:17;;;;;;;9.80;2.17;;;9.30;99.90;;;;;;5062143;28;20045;-71
2023/03/25 04:02:51;;;;;;;5.43;1.20;;;9.30;99.90;;;;;;5068929;28;20059;-70
2023/03/25 04:05:21;;;;;;;6.85;1.60;;;9.40;99.90;;;;;;5051783;28;20047;-71
2023/03/25 04:08:01;;;;;;;9.20;2.38;;;9.20;99.90;;;;;;5071926;28;20047;-71
2023/03/25 04:10:38;;;;;;;15.07;2.88;;;9.30;99.90;;;;;;5058364;28;20056;-71
2023/03/25 04:13:08;;;;;;;12.88;2.72;;;9.30;99.90;;;;;;5071226;28;20036;-70
2023/03/25 04:15:34;;;;;;;8.70;1.90;;;9.30;99.90;;;;;;5051938;28;20076;-71
2023/03/25 04:18:00;;;;;;;7.60;1.90;;;9.30;99.90;;;;;;5040066;28;20040;-70
2023/03/25 04:20:32;;;;;;;14.05;3.50;;;9.30;99.90;;;;;;5042265;28;20043;-71
2023/03/25 04:22:58;;;;;;;11.48;3.58;;;9.30;99.90;;;;;;5070075;28;20087;-71
2023/03/25 04:25:24;;;;;;;11.98;3.00;;;9.30;99.90;;;;;;5053844;28;20041;-71
2023/03/25 04:27:52;;;;;;;14.48;2.47;;;9.20;99.90;;;;;;5053729;28;20123;-71
2023/03/25 04:30:18;;;;;;;5.97;1.60;;;9.20;99.90;;;;;;5072674;28;20039;-71
2023/03/25 04:32:47;;;;;;;12.82;2.58;;;9.30;99.90;;;;;;5053890;28;20044;-70
2023/03/25 04:35:18;;;;;;;11.13;2.70;;;9.30;99.90;;;;;;5072404;28;20051;-70
2023/03/25 04:37:45;;;;;;;12.38;2.95;;;9.20;99.90;;;;;;5054407;28;20044;-71
2023/03/25 04:40:17;;;;;;;13.25;2.92;;;9.10;99.90;;;;;;5052654;28;20072;-71
2023/03/25 04:42:45;;;;;;;12.32;3.28;;;9.20;99.90;;;;;;5048673;28;20149;-71
2023/03/25 04:45:13;;;;;;;13.75;2.28;;;9.20;99.90;;;;;;5064829;28;20041;-70
2023/03/25 04:47:43;;;;;;;9.60;2.20;;;9.20;99.90;;;;;;5069543;28;20435;-71
2023/03/25 04:50:30;;;;;;;8.27;2.75;;;9.10;99.90;;;;;;5046029;28;20048;-70
2023/03/25 04:52:57;;;;;;;8.70;2.50;;;9.20;99.90;;;;;;5055676;28;20115;-70
2023/03/25 04:55:24;;;;;;;9.57;2.00;;;9.30;99.90;;;;;;5064455;28;20085;-71
2023/03/25 04:57:51;;;;;;;9.70;1.73;;;9.30;99.90;;;;;;5052251;28;20098;-69
2023/03/25 05:00:21;;;;;;;11.98;2.20;;;9.30;99.90;;;;;;5065985;28;20115;-70
2023/03/25 05:02:49;;;;;;;9.50;2.08;;;9.10;99.90;;;;;;5062915;28;20051;-70
2023/03/25 05:05:24;;;;;;;5.05;1.55;;;9.10;99.90;;;;;;5063112;28;20086;-69
2023/03/25 05:07:52;;;;;;;9.95;2.40;;;9.10;99.90;;;;;;5072199;28;20047;-69
2023/03/25 05:10:29;;;;;;;10.77;2.67;;;9.20;99.90;;;;;;5053589;28;20492;-69
2023/03/25 05:13:01;;;;;;;14.68;3.33;;;9.10;99.90;;;;;;5052036;28;20040;-68
2023/03/25 05:15:29;;;;;;;9.68;2.38;;;9.10;99.90;;;;;;5059469;28;20108;-69
2023/03/25 05:17:55;;;;;;;10.02;2.33;;;9.10;99.90;;;;;;5051841;28;20032;-69
2023/03/25 05:20:21;;;;;;;13.65;2.97;;;9.10;99.90;;;;;;5048189;28;20547;-69
2023/03/25 05:22:47;;;;;;;12.13;2.40;;;9.00;99.90;;;;;;5059163;28;20052;-69
2023/03/25 05:25:12;;;;;;;8.43;1.85;;;9.00;99.90;;;;;;5056335;28;20115;-70
2023/03/25 05:27:38;;;;;;;14.63;3.03;;;9.10;99.90;;;;;;5066777;28;20029;-69
2023/03/25 05:30:05;;;;;;;8.68;2.50;;;9.10;99.90;;;;;;5060404;28;20500;-69
2023/03/25 05:32:34;;;;;;;15.60;2.50;;;9.20;99.90;;;;;;5054307;28;20072;-69
2023/03/25 05:35:01;;;;;;;14.57;2.85;;;9.10;99.90;;;;;;5061286;28;20040;-69
2023/03/25 05:37:27;;;;;;;13.73;2.72;;;9.10;99.90;;;;;;5071622;28;20051;-69
2023/03/25 05:39:53;;;;;;;11.35;2.42;;;9.10;99.90;;;;;;5043475;28;20424;-69
2023/03/25 05:42:21;;;;;;;13.30;2.88;;;9.10;99.90;;;;;;5062215;28;20036;-69
2023/03/25 05:44:51;;;;;;;12.20;2.72;;;9.10;99.90;;;;;;5046057;28;20204;-69
2023/03/25 05:47:24;;;;;;;12.52;2.40;;;9.20;99.90;;;;;;5070687;28;20043;-69
2023/03/25 05:49:51;;;;;;;12.95;2.85;;;9.20;99.90;;;;;;5060113;28;20082;-69
2023/03/25 05:52:18;;;;;;;13.60;2.95;;;9.20;99.90;;;;;;5043520;28;20422;-69
2023/03/25 05:54:45;;;;;;;13.63;2.75;;;9.20;99.90;;;;;;5045528;28;20049;-69
2023/03/25 05:57:11;;;;;;;15.05;2.88;;;9.20;99.90;;;;;;5034564;28;20041;-69
2023/03/25 05:59:37;;;;;;;12.02;2.88;;;9.10;99.90;;;;;;5046397;28;20056;-69
2023/03/25 06:02:11;;;;;;;15.13;3.13;;;9.00;99.90;;;;;;5059883;28;20041;-69
2023/03/25 06:04:39;;;;;;;16.35;3.30;;;9.10;99.90;;;;;;5065196;28;20040;-69
2023/03/25 06:07:12;;;;;;;11.75;3.00;;;9.20;99.90;;;;;;5069436;28;20048;-69
2023/03/25 06:09:44;;;;;;;13.05;2.78;;;9.20;99.90;;;;;;5049391;28;20036;-69
2023/03/25 06:12:12;;;;;;;10.15;2.88;;;9.20;99.90;;;;;;5050750;28;20401;-69
2023/03/25 06:14:41;;;;;;;12.75;2.75;;;9.10;99.90;;;;;;5046960;28;20661;-69
2023/03/25 06:17:09;;;;;;;9.85;2.35;;;9.20;99.90;;;;;;5035712;28;20071;-69
2023/03/25 06:19:37;;;;;;;14.88;3.13;;;9.20;99.90;;;;;;5054561;28;20044;-69
2023/03/25 06:22:10;;;;;;;12.00;2.47;;;9.20;99.90;;;;;;5049148;28;20044;-69
2023/03/25 06:24:40;;;;;;;11.52;2.60;;;9.30;99.90;;;;;;5041936;28;20032;-69
2023/03/25 06:27:12;;;;;;;14.25;2.10;;;9.20;99.90;;;;;;5049690;28;20493;-69
2023/03/25 06:29:38;;;;;;;11.57;2.47;;;9.30;99.90;;;;;;5053306;28;20041;-69
2023/03/25 06:32:04;;;;;;;16.67;2.35;;;9.20;99.90;;;;;;5054694;28;20396;-69
2023/03/25 06:34:33;;;;;;;16.38;3.05;;;9.20;99.90;;;;;;5064017;28;20047;-69
2023/03/25 06:37:00;;;;;;;13.25;2.45;;;9.10;99.90;;;;;;5050327;28;20053;-68
2023/03/25 06:39:26;;;;;;;11.45;2.60;;;9.20;99.90;;;;;;5041161;28;20132;-69
2023/03/25 06:41:51;;;;;;;15.75;2.90;;;9.20;99.90;;;;;;5044165;28;20071;-70
2023/03/25 06:44:17;;;;;;;12.98;2.33;;;9.00;99.90;;;;;;5071392;28;20489;-69
2023/03/25 06:46:43;;;;;;;16.83;3.17;;;9.00;99.90;;;;;;5072511;28;20117;-69
2023/03/25 06:49:08;;;;;;;13.52;2.47;;;9.00;99.90;;;;;;5059494;28;20032;-69
2023/03/25 06:51:34;;;;;;;16.02;3.42;;;9.00;99.90;;;;;;5054106;28;20048;-69
2023/03/25 06:54:00;;;;;;;15.82;3.22;;;9.00;99.90;;;;;;5053680;28;20033;-70
2023/03/25 06:56:25;;;;;;;15.40;2.10;;;9.10;99.90;;;;;;5054849;28;20063;-70
2023/03/25 06:58:52;;;;;;;21.98;3.40;;;9.10;99.90;;;;;;5055207;28;20048;-70
2023/03/25 07:01:17;;;;;;;15.35;2.90;;;9.10;99.90;;;;;;5048176;28;20047;-69
2023/03/25 07:03:43;;;;;;;15.55;2.70;;;9.20;99.90;;;;;;5054462;28;20044;-70
2023/03/25 07:06:15;;;;;;;16.45;2.55;;;9.20;99.90;;;;;;5061479;28;20036;-69
2023/03/25 07:08:41;;;;;;;;;;;9.10;99.90;;;;;;5052486;28;20045;-69
2023/03/25 07:11:07;;;;;;;14.20;2.90;;;9.10;99.90;;;;;;5060668;28;19987;-70
2023/03/25 07:13:33;;;;;;;13.93;2.72;;;9.20;99.90;;;;;;5062856;28;20036;-70
2023/03/25 07:16:00;;;;;;;11.88;2.40;;;9.30;99.90;;;;;;5073009;28;20041;-70
2023/03/25 07:18:26;;;;;;;17.40;4.05;;;9.30;99.90;;;;;;5061177;28;20051;-70
2023/03/25 07:20:52;;;;;;;20.83;3.90;;;9.40;99.90;;;;;;5060495;28;20036;-69
2023/03/25 07:23:18;;;;;;;14.23;2.65;;;9.40;99.90;;;;;;5062643;28;20041;-70
2023/03/25 07:25:44;;;;;;;6.43;2.15;;;9.30;99.90;;;;;;5069755;28;20040;-70
2023/03/25 07:28:09;;;;;;;14.82;3.05;;;9.40;99.90;;;;;;5073266;28;20060;-70
2023/03/25 07:30:35;;;;;;;17.65;2.70;;;9.50;99.90;;;;;;5057292;28;20032;-70
2023/03/25 07:33:00;;;;;;;13.88;2.92;;;9.50;99.90;;;;;;5057321;28;20119;-70
2023/03/25 07:35:26;;;;;;;17.25;3.38;;;9.60;99.90;;;;;;5074129;28;20044;-70
2023/03/25 07:37:51;;;;;;;9.13;2.20;;;9.70;99.90;;;;;;5073871;28;20477;-70
2023/03/25 07:40:17;;;;;;;17.45;2.80;;;9.70;99.90;;;;;;5057402;28;20096;-70
2023/03/25 07:42:43;;;;;;;16.98;2.38;;;9.60;99.90;;;;;;5057056;28;20044;-70
2023/03/25 07:45:09;;;;;;;15.38;3.38;;;9.60;99.90;;;;;;5073798;28;20106;-70
2023/03/25 07:47:35;;;;;;;14.15;2.33;;;9.50;99.90;;;;;;5056939;28;20476;-70
2023/03/25 07:50:01;;;;;;;10.80;1.88;;;9.40;99.90;;;;;;5072805;28;20049;-71
2023/03/25 07:52:27;;;;;;;16.60;2.40;;;9.40;99.90;;;;;;5056856;28;20052;-70
2023/03/25 07:54:52;;;;;;;15.73;2.33;;;9.30;99.90;;;;;;5055616;28;20055;-71
2023/03/25 07:57:18;;;;;;;11.38;2.08;;;9.20;99.90;;;;;;5072681;28;20045;-70
2023/03/25 07:59:44;;;;;;;12.65;2.33;;;9.30;99.90;;;;;;5073407;28;20036;-71
2023/03/25 08:02:12;;;;;;;11.95;2.25;;;9.20;99.90;;;;;;5073678;28;20102;-71
2023/03/25 08:04:38;;;;;;;14.88;2.25;;;9.10;99.90;;;;;;5056556;28;20086;-70
2023/03/25 08:07:03;;;;;;;12.68;2.17;;;9.20;99.90;;;;;;5073513;28;20033;-71
2023/03/25 08:09:29;;;;;;;11.05;2.30;;;9.10;99.90;;;;;;5056737;28;20033;-68
2023/03/25 08:11:55;;;;;;;11.32;1.48;;;9.20;99.90;;;;;;5056777;28;20028;-69
2023/03/25 08:14:21;;;;;;;12.93;2.60;;;9.10;99.90;;;;;;5073124;28;20036;-69
2023/03/25 08:16:46;;;;;;;10.30;2.22;;;9.20;99.90;;;;;;5056386;28;20553;-69
2023/03/25 08:19:12;;;;;;;12.88;2.60;;;9.30;99.90;;;;;;5073344;28;20037;-69
2023/03/25 08:21:38;;;;;;;13.85;2.42;;;9.30;99.90;;;;;;5072955;28;20041;-68
2023/03/25 08:24:04;;;;;;;9.43;1.95;;;9.10;99.90;;;;;;5055230;28;20059;-69
2023/03/25 08:26:33;;;;;;;14.30;2.30;;;9.10;99.90;;;;;;5070557;28;20450;-68
2023/03/25 08:29:01;;;;;;;12.48;2.33;;;9.00;99.90;;;;;;5056504;28;20040;-68
2023/03/25 08:31:29;;;;;;;12.73;2.65;;;8.80;99.90;;;;;;5056152;28;20040;-68
2023/03/25 08:33:59;;;;;;;14.02;2.58;;;9.00;99.90;;;;;;5072761;28;20036;-69
2023/03/25 08:36:26;;;;;;;13.07;2.13;;;9.10;99.90;;;;;;5072774;28;20404;-68
2023/03/25 08:38:52;;;;;;;16.38;2.80;;;9.10;99.90;;;;;;5072898;28;20032;-69
2023/03/25 08:41:18;;;;;;;14.77;2.35;;;9.20;99.90;;;;;;5049541;28;20617;-68
2023/03/25 08:43:44;;;;;;;13.65;2.50;;;9.20;99.90;;;;;;5061221;28;20404;-69
2023/03/25 08:46:09;;;;;;;16.35;3.33;;;9.30;99.90;;;;;;5052524;28;20102;-68
2023/03/25 08:48:35;;;;;;;8.40;2.40;;;9.60;99.90;;;;;;5035900;28;20032;-68
2023/03/25 08:51:02;;;;;;;15.13;2.22;;;9.70;99.90;;;;;;5035666;28;20444;-69
2023/03/25 08:53:28;;;;;;;16.63;2.75;;;9.70;99.90;;;;;;5038537;28;20064;-68
2023/03/25 08:55:56;;;;;;;17.00;2.75;;;9.50;99.90;;;;;;5057624;28;20448;-68
2023/03/25 08:58:22;;;;;;;12.45;2.42;;;9.30;99.90;;;;;;5064490;28;20128;-68
2023/03/25 09:00:53;;;;;;;17.73;3.03;;;9.30;99.90;;;;;;5035681;28;20036;-69
2023/03/25 09:03:19;;;;;;;10.82;2.28;;;9.40;99.90;;;;;;5041755;28;20124;-69
2023/03/25 09:05:45;;;;;;;15.10;2.65;;;9.40;99.90;;;;;;5042050;28;20101;-69
2023/03/25 09:08:11;;;;;;;14.82;2.95;;;9.40;99.90;;;;;;5072126;28;20048;-69
2023/03/25 09:10:37;;;;;;;16.23;2.97;;;9.50;99.90;;;;;;5055449;28;20064;-70
2023/03/25 09:13:02;;;;;;;14.93;2.75;;;9.50;99.90;;;;;;5066302;28;20047;-69
2023/03/25 09:15:28;;;;;;;10.93;1.95;;;9.60;99.90;;;;;;5062769;28;20098;-70
2023/03/25 09:17:54;;;;;;;16.92;3.90;;;9.70;99.90;;;;;;5064059;28;20103;-71
2023/03/25 09:20:19;;;;;;;13.95;2.70;;;9.80;99.90;;;;;;5045657;28;20135;-68
2023/03/25 09:22:45;;;;;;;17.17;3.10;;;9.70;99.90;;;;;;5071995;28;20044;-68
2023/03/25 09:25:11;;;;;;;14.02;2.58;;;9.50;99.90;;;;;;5055205;28;20041;-68
2023/03/25 09:27:36;;;;;;;14.35;2.58;;;9.50;99.90;;;;;;5052351;28;20074;-69
2023/03/25 09:30:04;;;;;;;12.95;2.15;;;9.50;99.90;;;;;;5035241;28;20549;-68
2023/03/25 09:32:30;;;;;;;13.45;2.35;;;9.60;99.90;;;;;;5047488;28;20041;-68
2023/03/25 09:34:55;;;;;;;12.30;2.45;;;9.60;99.90;;;;;;5035227;28;20041;-68
2023/03/25 09:37:21;;;;;;;15.07;2.50;;;9.60;99.90;;;;;;5034842;28;20090;-69
2023/03/25 09:39:46;;;;;;;12.05;1.92;;;9.70;99.90;;;;;;5052359;28;20041;-68
2023/03/25 09:42:27;;;;;;;11.23;2.25;;;9.80;99.90;;;;;;5071909;28;20040;-69
2023/03/25 09:45:16;;;;;;;16.80;2.45;;;9.80;99.90;;;;;;5055017;28;20045;-69
2023/03/25 09:48:08;;;;;;;12.68;2.50;;;9.80;99.90;;;;;;5050591;28;20037;-69
2023/03/25 09:50:35;;;;;;;15.43;2.80;;;9.90;99.90;;;;;;5051027;28;20099;-68
2023/03/25 09:53:11;;;;;;;12.75;3.03;;;9.90;99.90;;;;;;5059545;28;20037;-70
2023/03/25 09:55:43;;;;;;;17.67;2.88;;;9.90;99.90;;;;;;5051604;28;20043;-70
2023/03/25 09:58:24;;;;;;;;;;;9.90;99.90;;;;;;5056082;28;20032;-70
2023/03/25 10:01:03;;;;;;;15.15;2.67;;;9.60;99.90;;;;;;5049433;28;19917;-70
2023/03/25 10:04:09;;;;;;;8.73;1.70;;;9.60;99.90;;;;;;5066785;28;20060;-70
2023/03/25 10:07:00;;;;;;;11.05;2.22;;;9.80;99.90;;;;;;5037660;28;20076;-70
2023/03/25 10:09:48;;;;;;;11.35;2.30;;;10.00;99.90;;;;;;5049232;28;20114;-69
2023/03/25 10:12:31;;;;;;;9.68;1.90;;;10.00;99.90;;;;;;5069814;28;20098;-70
2023/03/25 10:15:27;;;;;;;8.45;1.55;;;10.20;99.90;;;;;;5059312;28;20127;-69
2023/03/25 10:18:26;;;;;;;11.30;2.75;;;10.40;99.90;;;;;;5043725;28;20150;-69
2023/03/25 10:21:11;;;;;;;12.38;2.58;;;10.00;99.90;;;;;;5068235;28;20044;-70
2023/03/25 10:23:44;;;;;;;15.32;2.28;;;9.70;99.90;;;;;;5055572;28;20087;-70
2023/03/25 10:26:28;;;;;;;13.95;2.33;;;9.70;99.90;;;;;;5046608;28;20037;-69
2023/03/25 10:29:00;;;;;;;14.60;2.30;;;9.60;99.90;;;;;;5054674;28;20036;-70
2023/03/25 10:31:30;;;;;;;15.43;2.70;;;9.60;99.90;;;;;;5054571;28;20040;-69
2023/03/25 10:34:00;;;;;;;11.48;2.05;;;9.60;99.90;;;;;;5046817;28;20044;-70
2023/03/25 10:36:41;;;;;;;12.20;2.05;;;9.70;99.90;;;;;;5050392;28;20040;-70
2023/03/25 10:39:17;;;;;;;12.05;2.40;;;9.90;99.90;;;;;;5053300;28;20548;-70
2023/03/25 10:41:49;;;;;;;15.68;2.67;;;9.90;99.90;;;;;;5069703;28;20040;-69
2023/03/25 10:44:15;;;;;;;13.68;2.78;;;9.80;99.90;;;;;;5094915;28;20040;-70
2023/03/25 10:46:48;;;;;;;15.57;3.22;;;9.80;99.90;;;;;;5044160;28;20132;-70
2023/03/25 10:49:24;;;;;;;13.88;2.45;;;9.70;99.90;;;;;;5069403;28;20105;-69
2023/03/25 10:51:56;;;;;;;14.90;2.97;;;9.80;99.90;;;;;;5069361;28;20105;-70
2023/03/25 10:54:30;;;;;;;14.63;2.28;;;9.80;99.90;;;;;;5049989;28;20033;-70
2023/03/25 10:57:01;;;;;;;15.95;2.90;;;9.90;99.90;;;;;;5060525;28;20064;-69
2023/03/25 10:59:55;;;;;;;23.92;3.40;;;10.00;99.90;;;;;;5043166;28;20079;-69
2023/03/25 11:02:24;;;;;;;15.75;2.15;;;10.10;99.90;;;;;;5066677;28;20129;-70
2023/03/25 11:04:56;;;;;;;14.88;2.90;;;10.10;99.90;;;;;;5057290;28;20485;-70
2023/03/25 11:07:44;;;;;;;11.63;3.50;;;10.10;99.90;;;;;;5072553;28;20397;-70
2023/03/25 11:10:25;;;;;;;19.52;3.47;;;10.20;99.90;;;;;;5054944;28;20055;-70
2023/03/25 11:12:52;;;;;;;15.32;2.78;;;10.00;99.90;;;;;;5088782;28;20497;-70
2023/03/25 11:15:24;;;;;;;16.73;2.47;;;10.00;99.90;;;;;;5080966;28;20049;-71
2023/03/25 11:18:02;;;;;;;15.35;2.47;;;10.10;99.90;;;;;;5067740;28;20047;-70
2023/03/25 11:20:34;;;;;;;18.38;3.08;;;10.10;99.90;;;;;;5056774;28;20091;-71
2023/03/25 11:23:05;;;;;;;17.25;3.15;;;10.20;99.90;;;;;;5052749;28;20047;-71
2023/03/25 11:25:38;;;;;;;13.88;2.55;;;10.30;99.90;;;;;;5072323;28;20044;-70
2023/03/25 11:28:14;;;;;;;14.98;2.80;;;10.40;99.90;;;;;;5064230;28;21325;-70
2023/03/25 11:31:11;;;;;;;12.55;2.13;;;10.70;99.90;;;;;;5081922;28;20546;-70
2023/03/25 11:33:37;;;;;;;13.85;3.05;;;10.80;99.90;;;;;;5060242;28;20028;-70
2023/03/25 11:36:30;;;;;;;13.70;2.10;;;10.90;99.90;;;;;;5055524;28;20033;-70
2023/03/25 11:38:59;;;;;;;9.88;2.53;;;10.90;99.90;;;;;;5054863;28;20379;-70
2023/03/25 11:41:31;;;;;;;13.77;2.50;;;11.00;99.90;;;;;;5052094;28;20044;-70
2023/03/25 11:43:57;;;;;;;14.45;2.38;;;11.20;99.90;;;;;;5057112;28;20528;-70
2023/03/25 11:46:23;;;;;;;11.43;1.80;;;11.20;99.90;;;;;;5070893;28;20080;-70
2023/03/25 11:48:49;;;;;;;9.57;1.85;;;11.50;99.90;;;;;;5063222;28;20040;-70
2023/03/25 11:51:29;;;;;;;14.93;2.33;;;11.80;99.90;;;;;;5046477;28;20045;-70
2023/03/25 11:53:58;;;;;;;12.35;2.38;;;11.70;99.90;;;;;;5059543;28;20493;-71
2023/03/25 11:56:30;;;;;;;17.52;2.80;;;11.60;99.90;;;;;;5045765;28;20427;-71
2023/03/25 11:59:00;;;;;;;12.77;2.25;;;11.40;99.90;;;;;;5063506;28;20403;-71
2023/03/25 12:01:44;;;;;;;13.40;2.40;;;11.30;99.90;;;;;;5065283;28;20049;-70
2023/03/25 12:04:21;;;;;;;15.00;2.72;;;11.30;99.90;;;;;;5043897;28;20041;-70
2023/03/25 12:06:56;;;;;;;11.75;1.85;;;11.30;99.90;;;;;;5053658;28;20273;-70
2023/03/25 12:09:23;;;;;;;15.23;1.88;;;11.30;99.90;;;;;;5060696;28;20041;-70
2023/03/25 12:12:06;;;;;;;7.70;1.55;;;11.50;99.90;;;;;;5061309;28;20041;-70
2023/03/25 12:14:34;;;;;;;13.18;2.22;;;11.70;99.90;;;;;;5038605;28;20043;-70
2023/03/25 12:17:22;;;;;;;14.48;2.53;;;11.90;99.90;;;;;;5061239;28;20585;-70
2023/03/25 12:19:59;;;;;;;7.53;1.40;;;11.80;99.90;;;;;;5068097;28;20132;-71
2023/03/25 12:22:49;;;;;;;9.93;2.75;;;12.00;99.90;;;;;;5052674;28;20079;-70
2023/03/25 12:25:40;;;;;;;13.07;2.80;;;12.00;99.90;;;;;;5060029;28;20083;-70
2023/03/25 12:28:20;;;;;;;15.20;2.38;;;12.00;99.90;;;;;;5052595;28;20032;-70
2023/03/25 12:31:30;;;;;;;14.20;2.35;;;12.00;99.90;;;;;;5036122;28;20043;-71
2023/03/25 12:34:27;;;;;;;10.57;1.77;;;11.80;99.90;;;;;;5036920;28;20044;-70
2023/03/25 12:37:01;;;;;;;12.00;2.10;;;11.80;99.90;;;;;;5068075;28;20449;-69
2023/03/25 12:39:56;;;;;;;11.68;1.95;;;11.60;99.90;;;;;;5072083;28;20485;-70
2023/03/25 12:42:46;;;;;;;12.63;2.00;;;11.60;99.90;;;;;;5063878;28;20493;-70
2023/03/25 12:45:23;;;;;;;12.43;2.90;;;11.70;99.90;;;;;;5067847;28;20040;-70
2023/03/25 12:47:57;;;;;;;9.45;1.63;;;11.70;99.90;;;;;;5055943;28;20531;-70
2023/03/25 12:51:01;;;;;;;12.73;2.40;;;11.90;99.90;;;;;;5069153;28;20044;-70
2023/03/25 12:53:44;;;;;;;10.88;1.83;;;12.10;99.90;;;;;;5051853;28;20037;-70
2023/03/25 12:56:19;;;;;;;8.73;2.17;;;12.00;99.90;;;;;;5039609;28;20401;-70
2023/03/25 12:59:10;;;;;;;10.95;1.95;;;12.00;99.90;;;;;;5062453;28;20412;-70
2023/03/25 13:02:02;;;;;;;10.80;1.58;;;11.90;99.90;;;;;;5060107;28;20041;-73
2023/03/25 13:04:58;;;;;;;11.60;1.65;;;12.00;99.90;;;;;;5039725;28;20401;-73
2023/03/25 13:07:52;;;;;;;11.38;2.10;;;12.10;99.90;;;;;;5037726;28;20037;-70
2023/03/25 13:10:19;;;;;;;9.88;1.70;;;11.80;99.90;;;;;;5050346;28;20049;-71
2023/03/25 13:12:49;;;;;;;12.15;2.05;;;11.70;99.90;;;;;;5051194;28;20067;-70